Time;durP1;ratioP1;P1;durP2;ratioP2;P2;SDS_P1;SDS_P2;PMS_P1;PMS_P2;Temp;Humidity;BMP_temperature;BMP_pressure;BME280_temperature;BME280_humidity;BME280_pressure;Samples;Min_cycle;Max_cycle;Signal;HPM_P1;HPM_P2
2024/01/20 00:02:40;;;;;;;15.93;7.03;;;;;;;;;;8429145;28;19920;-83
2024/01/20 00:06:43;;;;;;;27.25;8.75;;;;;;;;;;8429138;28;20047;-83
2024/01/20 00:10:45;;;;;;;15.73;7.82;;;;;;;;;;8429017;28;20135;-82
2024/01/20 00:14:47;;;;;;;;;;;;;;;;;;8432926;28;20040;-83
2024/01/20 00:18:49;;;;;;;17.45;8.00;;;;;;;;;;8435270;28;20363;-83
2024/01/20 00:22:52;;;;;;;20.77;7.75;;;;;;;;;;8434966;28;20119;-82
2024/01/20 00:26:54;;;;;;;20.40;8.25;;;;;;;;;;8434930;28;20040;-83
2024/01/20 00:30:56;;;;;;;26.48;9.82;;;;;;;;;;8434776;28;20082;-83
2024/01/20 00:34:59;;;;;;;18.52;7.55;;;;;;;;;;8424009;28;20047;-83
2024/01/20 00:39:02;;;;;;;;;;;;;;;;;;8434790;28;20086;-82
2024/01/20 00:43:04;;;;;;;22.58;9.05;;;;;;;;;;8434475;28;19920;-83
2024/01/20 00:47:06;;;;;;;18.65;7.68;;;;;;;;;;8430346;28;20040;-83
2024/01/20 00:51:08;;;;;;;;;;;;;;;;;;8434508;28;20480;-83
2024/01/20 00:55:12;;;;;;;15.32;6.13;;;;;;;;;;8434375;28;20356;-83
2024/01/20 00:59:13;;;;;;;16.88;7.45;;;;;;;;;;8433835;28;20058;-82
2024/01/20 01:03:15;;;;;;;;;;;;;;;;;;8433920;28;20411;-83
2024/01/20 01:07:18;;;;;;;18.55;8.77;;;;;;;;;;8432866;28;20019;-83
2024/01/20 01:11:21;;;;;;;14.95;7.13;;;;;;;;;;8422056;28;20046;-83
2024/01/20 01:15:24;;;;;;;18.45;7.57;;;;;;;;;;8433338;28;20121;-83
2024/01/20 01:19:26;;;;;;;21.35;8.52;;;;;;;;;;8432981;28;20134;-83
2024/01/20 01:23:28;;;;;;;22.67;7.95;;;;;;;;;;8433067;28;20043;-83
2024/01/20 01:27:31;;;;;;;16.42;8.25;;;;;;;;;;8433849;28;20032;-83
2024/01/20 01:31:34;;;;;;;17.63;7.38;;;;;;;;;;8432895;28;20389;-82
2024/01/20 01:35:36;;;;;;;19.10;8.18;;;;;;;;;;8419539;28;20127;-83
2024/01/20 01:39:42;;;;;;;18.88;8.55;;;;;;;;;;8432520;28;20040;-83
2024/01/20 01:43:46;;;;;;;21.00;9.05;;;;;;;;;;8419745;28;20504;-83
2024/01/20 01:47:48;;;;;;;11.25;6.22;;;;;;;;;;8432028;28;20047;-83
2024/01/20 01:51:51;;;;;;;19.58;7.53;;;;;;;;;;8418757;28;20038;-83
2024/01/20 01:55:54;;;;;;;19.52;7.25;;;;;;;;;;8432327;28;20094;-83
2024/01/20 01:59:58;;;;;;;20.30;8.70;;;;;;;;;;8432185;28;20043;-83
2024/01/20 02:04:00;;;;;;;19.17;7.68;;;;;;;;;;8431736;28;20124;-84
2024/01/20 02:08:04;;;;;;;23.23;7.75;;;;;;;;;;8431611;28;20055;-83
2024/01/20 02:12:06;;;;;;;33.13;8.57;;;;;;;;;;8428184;28;20051;-83
2024/01/20 02:16:09;;;;;;;18.25;8.18;;;;;;;;;;8431467;28;20040;-83
2024/01/20 02:20:14;;;;;;;17.85;7.72;;;;;;;;;;8431522;28;20123;-83
2024/01/20 02:24:17;;;;;;;19.77;6.07;;;;;;;;;;8407259;28;20511;-83
2024/01/20 02:28:25;;;;;;;16.98;6.90;;;;;;;;;;8431009;28;20037;-83
2024/01/20 02:32:28;;;;;;;28.33;9.35;;;;;;;;;;8418115;28;20085;-83
2024/01/20 02:36:30;;;;;;;19.77;8.75;;;;;;;;;;8430252;28;20044;-83
2024/01/20 02:40:33;;;;;;;;;;;;;;;;;;8431129;28;20044;-82
2024/01/20 02:44:35;;;;;;;13.52;5.65;;;;;;;;;;8430853;28;19946;-82
2024/01/20 02:48:37;;;;;;;13.65;7.47;;;;;;;;;;8417509;28;20506;-82
2024/01/20 02:52:39;;;;;;;;;;;;;;;;;;8423133;28;20037;-83
2024/01/20 02:56:42;;;;;;;12.95;6.60;;;;;;;;;;8422712;28;19924;-82
2024/01/20 03:00:44;;;;;;;16.63;6.90;;;;;;;;;;8419105;28;20040;-83
2024/01/20 03:04:46;;;;;;;22.40;8.55;;;;;;;;;;8430104;28;20067;-83
2024/01/20 03:08:48;;;;;;;17.85;7.32;;;;;;;;;;8418763;28;20445;-83
2024/01/20 03:12:52;;;;;;;18.40;6.68;;;;;;;;;;8410852;28;20446;-83
2024/01/20 03:17:03;;;;;;;20.95;8.20;;;;;;;;;;8410106;28;20059;-83
2024/01/20 03:21:05;;;;;;;12.50;6.70;;;;;;;;;;8398240;28;20856;-83
2024/01/20 03:25:08;;;;;;;18.17;8.18;;;;;;;;;;8410558;28;20086;-83
2024/01/20 03:29:12;;;;;;;18.17;7.53;;;;;;;;;;8408080;28;20072;-82
2024/01/20 03:33:14;;;;;;;17.20;7.28;;;;;;;;;;8423962;28;20040;-83
2024/01/20 03:37:22;;;;;;;13.55;5.78;;;;;;;;;;8427067;28;20090;-83
2024/01/20 03:41:24;;;;;;;17.08;6.43;;;;;;;;;;8410690;28;20094;-83
2024/01/20 03:45:27;;;;;;;;;;;;;;;;;;8399009;28;20035;-83
2024/01/20 03:49:29;;;;;;;16.73;6.15;;;;;;;;;;8427513;28;19920;-83
2024/01/20 03:53:31;;;;;;;15.32;6.25;;;;;;;;;;8429522;28;20040;-82
2024/01/20 03:57:33;;;;;;;;;;;;;;;;;;8413384;28;20041;-83
2024/01/20 04:01:40;;;;;;;13.45;6.68;;;;;;;;;;8429218;28;20342;-83
2024/01/20 04:05:42;;;;;;;9.57;4.68;;;;;;;;;;8408963;28;20356;-83
2024/01/20 04:09:44;;;;;;;17.85;7.00;;;;;;;;;;8435602;28;20204;-82
2024/01/20 04:13:46;;;;;;;;;;;;;;;;;;8428286;28;20485;-83
2024/01/20 04:17:49;;;;;;;10.10;6.10;;;;;;;;;;8413223;28;20391;-82
2024/01/20 04:21:51;;;;;;;9.80;4.40;;;;;;;;;;8410805;28;20044;-82
2024/01/20 04:25:53;;;;;;;;;;;;;;;;;;8434942;28;20044;-82
2024/01/20 04:30:35;;;;;;;13.70;5.88;;;;;;;;;;8434943;28;19934;-82
2024/01/20 04:34:39;;;;;;;12.30;6.38;;;;;;;;;;8435621;28;20046;-81
2024/01/20 04:38:41;;;;;;;15.40;6.78;;;;;;;;;;8422133;28;20057;-81
2024/01/20 04:42:43;;;;;;;19.98;6.15;;;;;;;;;;8435225;28;20094;-82
2024/01/20 04:46:45;;;;;;;14.30;5.55;;;;;;;;;;8434296;28;20044;-82
2024/01/20 04:50:49;;;;;;;14.93;5.00;;;;;;;;;;8430384;28;20048;-82
2024/01/20 04:54:52;;;;;;;9.20;4.22;;;;;;;;;;8433630;28;20106;-82
2024/01/20 04:58:55;;;;;;;11.88;5.38;;;;;;;;;;8433446;28;20040;-82
2024/01/20 05:02:57;;;;;;;14.73;6.20;;;;;;;;;;8433629;28;20485;-82
2024/01/20 05:07:41;;;;;;;;;;;;;;;;;;8434713;28;20040;-82
2024/01/20 05:11:44;;;;;;;15.23;5.75;;;;;;;;;;8424147;28;19969;-82
2024/01/20 05:15:46;;;;;;;20.92;8.07;;;;;;;;;;8432979;28;20036;-82
2024/01/20 05:19:48;;;;;;;20.52;6.78;;;;;;;;;;8433815;28;20506;-82
2024/01/20 05:23:50;;;;;;;22.33;6.68;;;;;;;;;;8433146;28;20123;-82
2024/01/20 05:27:55;;;;;;;22.33;7.05;;;;;;;;;;8429505;28;20389;-83
2024/01/20 05:31:57;;;;;;;21.25;7.93;;;;;;;;;;8413647;28;20067;-83
2024/01/20 05:36:25;;;;;;;;;;;;;;;;;;8417362;28;20040;-83
2024/01/20 05:40:27;;;;;;;25.00;6.85;;;;;;;;;;8422425;28;19920;-82
2024/01/20 05:44:41;;;;;;;;;;;;;;;;;;8432775;28;20036;-83
2024/01/20 05:48:43;;;;;;;21.25;6.85;;;;;;;;;;8419456;28;19948;-82
2024/01/20 05:52:45;;;;;;;;;;;;;;;;;;8420628;28;20036;-82
2024/01/20 05:57:18;;;;;;;11.40;4.78;;;;;;;;;;8428614;28;20388;-82
2024/01/20 06:01:21;;;;;;;17.23;7.13;;;;;;;;;;8431985;28;20079;-83
2024/01/20 06:05:23;;;;;;;15.00;7.35;;;;;;;;;;8427267;28;20062;-83
2024/01/20 06:09:25;;;;;;;;;;;;;;;;;;8411159;28;20040;-83
2024/01/20 06:13:29;;;;;;;12.93;5.82;;;;;;;;;;8418331;28;19924;-82
2024/01/20 06:17:32;;;;;;;20.58;5.05;;;;;;;;;;8414277;28;20040;-83
2024/01/20 06:21:35;;;;;;;12.20;5.85;;;;;;;;;;8429280;28;20040;-83
2024/01/20 06:25:37;;;;;;;;;;;;;;;;;;8417058;28;20040;-83
2024/01/20 06:29:41;;;;;;;22.55;6.90;;;;;;;;;;8430106;28;19924;-83
2024/01/20 06:33:44;;;;;;;21.48;6.18;;;;;;;;;;8419672;28;20036;-84
2024/01/20 06:37:46;;;;;;;16.73;8.70;;;;;;;;;;8428771;28;20032;-83
2024/01/20 06:41:50;;;;;;;12.55;7.50;;;;;;;;;;8422296;28;20048;-82
2024/01/20 06:45:52;;;;;;;15.45;6.40;;;;;;;;;;8417581;28;20045;-83
2024/01/20 06:49:55;;;;;;;;;;;;;;;;;;8429632;28;20101;-83
2024/01/20 06:54:05;;;;;;;21.63;8.38;;;;;;;;;;8422510;28;19920;-83
2024/01/20 06:58:07;;;;;;;19.33;8.98;;;;;;;;;;8427521;28;20043;-83
2024/01/20 07:02:10;;;;;;;19.00;7.70;;;;;;;;;;8428541;28;20040;-83
2024/01/20 07:06:13;;;;;;;13.63;7.63;;;;;;;;;;8429063;28;20471;-82
2024/01/20 07:10:15;;;;;;;22.15;10.32;;;;;;;;;;8428203;28;20058;-82
2024/01/20 07:14:19;;;;;;;;;;;;;;;;;;8430484;28;20168;-83
2024/01/20 07:18:21;;;;;;;17.45;7.78;;;;;;;;;;8421720;28;19920;-83
2024/01/20 07:22:37;;;;;;;17.65;8.20;;;;;;;;;;8429518;28;20496;-83
2024/01/20 07:26:39;;;;;;;14.02;6.63;;;;;;;;;;8433180;28;20028;-83
2024/01/20 07:30:41;;;;;;;13.27;6.97;;;;;;;;;;8433352;28;20476;-83
2024/01/20 07:34:44;;;;;;;;;;;;;;;;;;8433136;28;20433;-83
2024/01/20 07:38:47;;;;;;;25.20;10.60;;;;;;;;;;8436261;28;19920;-82
2024/01/20 07:42:49;;;;;;;16.08;8.07;;;;;;;;;;8423135;28;20511;-83
2024/01/20 07:46:51;;;;;;;13.52;6.72;;;;;;;;;;8431261;28;20102;-83
2024/01/20 07:50:54;;;;;;;16.55;7.72;;;;;;;;;;8428375;28;20040;-83
2024/01/20 07:54:57;;;;;;;18.80;9.20;;;;;;;;;;8435929;28;20119;-83
2024/01/20 07:58:59;;;;;;;19.42;8.43;;;;;;;;;;8422013;28;20036;-83
2024/01/20 08:03:02;;;;;;;13.50;6.15;;;;;;;;;;8416315;28;20056;-83
2024/01/20 08:07:05;;;;;;;19.63;10.30;;;;;;;;;;8435371;28;20048;-83
2024/01/20 08:11:08;;;;;;;22.20;9.95;;;;;;;;;;8436104;28;20051;-83
2024/01/20 08:15:10;;;;;;;32.30;14.15;;;;;;;;;;8417819;28;20094;-83
2024/01/20 08:19:12;;;;;;;;;;;;;;;;;;8421303;28;20433;-83
2024/01/20 08:23:16;;;;;;;18.50;8.90;;;;;;;;;;8408285;28;19927;-84
2024/01/20 08:27:19;;;;;;;11.95;6.07;;;;;;;;;;8406034;28;20139;-84
2024/01/20 08:31:21;;;;;;;20.58;8.35;;;;;;;;;;8413893;28;20527;-83
2024/01/20 08:35:23;;;;;;;;;;;;;;;;;;8414398;28;20054;-84
2024/01/20 08:39:25;;;;;;;27.27;12.85;;;;;;;;;;8408810;28;19965;-83
2024/01/20 08:43:28;;;;;;;;;;;;;;;;;;8421117;28;20416;-84
2024/01/20 08:47:30;;;;;;;14.77;7.60;;;;;;;;;;8418908;28;19920;-84
2024/01/20 08:51:32;;;;;;;;;;;;;;;;;;8432656;28;20078;-83
2024/01/20 08:55:34;;;;;;;27.73;12.38;;;;;;;;;;8431979;28;19919;-84
2024/01/20 08:59:38;;;;;;;17.45;8.23;;;;;;;;;;8428396;28;20040;-83
2024/01/20 09:03:40;;;;;;;24.27;11.52;;;;;;;;;;8423004;28;20052;-83
2024/01/20 09:07:43;;;;;;;;;;;;;;;;;;8411323;28;20421;-84
2024/01/20 09:11:58;;;;;;;13.38;6.28;;;;;;;;;;8410401;28;20013;-84
2024/01/20 09:16:01;;;;;;;15.25;6.68;;;;;;;;;;8418320;28;20094;-84
2024/01/20 09:20:03;;;;;;;14.40;6.63;;;;;;;;;;8403602;28;20032;-83
2024/01/20 09:24:06;;;;;;;9.18;5.00;;;;;;;;;;8410242;28;20036;-83
2024/01/20 09:28:08;;;;;;;12.75;5.93;;;;;;;;;;8412076;28;20411;-83
2024/01/20 09:32:11;;;;;;;;;;;;;;;;;;8403234;28;20029;-83
2024/01/20 09:36:13;;;;;;;11.13;5.30;;;;;;;;;;8426419;28;19920;-84
2024/01/20 09:40:15;;;;;;;;;;;;;;;;;;8419370;28;20399;-84
2024/01/20 09:44:18;;;;;;;18.08;6.97;;;;;;;;;;8423697;28;19920;-81
2024/01/20 09:48:22;;;;;;;18.15;6.38;;;;;;;;;;8411312;28;20041;-80
2024/01/20 09:52:29;;;;;;;20.75;7.97;;;;;;;;;;8420589;28;20076;-80
2024/01/20 09:56:32;;;;;;;19.33;7.82;;;;;;;;;;8412931;28;20044;-80
2024/01/20 10:00:40;;;;;;;16.67;8.60;;;;;;;;;;8413696;28;20040;-81
2024/01/20 10:04:47;;;;;;;21.63;7.85;;;;;;;;;;8413256;28;20476;-80
2024/01/20 10:08:50;;;;;;;12.55;5.90;;;;;;;;;;8407989;28;20127;-80
2024/01/20 10:12:53;;;;;;;13.85;7.35;;;;;;;;;;8410158;28;20040;-80
2024/01/20 10:16:57;;;;;;;9.88;4.78;;;;;;;;;;8430877;28;20466;-80
2024/01/20 10:21:04;;;;;;;15.10;5.80;;;;;;;;;;8417695;28;20055;-80
2024/01/20 10:25:07;;;;;;;11.48;5.80;;;;;;;;;;8412703;28;20044;-80
2024/01/20 10:29:15;;;;;;;15.02;6.35;;;;;;;;;;8423349;28;21527;-80
2024/01/20 10:33:17;;;;;;;19.98;9.38;;;;;;;;;;8417346;28;20044;-81
2024/01/20 10:37:22;;;;;;;;;;;;;;;;;;8410550;28;20044;-80
2024/01/20 10:41:25;;;;;;;8.45;5.65;;;;;;;;;;8409953;28;19920;-81
2024/01/20 10:45:34;;;;;;;14.38;7.10;;;;;;;;;;8429112;28;20097;-80
2024/01/20 10:49:46;;;;;;;15.15;7.25;;;;;;;;;;8409741;28;20496;-81
2024/01/20 10:53:50;;;;;;;14.95;8.40;;;;;;;;;;8406044;28;20067;-80
2024/01/20 10:57:53;;;;;;;10.80;5.30;;;;;;;;;;8421382;28;20044;-80
2024/01/20 11:02:01;;;;;;;7.88;4.68;;;;;;;;;;8411051;28;20048;-81
2024/01/20 11:06:04;;;;;;;11.18;5.80;;;;;;;;;;8426406;28;20397;-80
2024/01/20 11:10:09;;;;;;;10.93;6.28;;;;;;;;;;8408873;28;20531;-80
2024/01/20 11:14:13;;;;;;;13.20;7.05;;;;;;;;;;8409353;28;20047;-80
2024/01/20 11:18:17;;;;;;;13.38;5.18;;;;;;;;;;8418373;28;20668;-80
2024/01/20 11:22:32;;;;;;;13.43;7.65;;;;;;;;;;8395936;28;20546;-80
2024/01/20 11:26:37;;;;;;;17.48;7.53;;;;;;;;;;8409193;28;20066;-80
2024/01/20 11:30:39;;;;;;;11.52;6.03;;;;;;;;;;8402882;28;20068;-80
2024/01/20 11:34:41;;;;;;;;;;;;;;;;;;8429451;28;20098;-81
2024/01/20 11:38:44;;;;;;;24.60;8.60;;;;;;;;;;8416395;28;19970;-80
2024/01/20 11:42:48;;;;;;;21.42;8.77;;;;;;;;;;8415387;28;20044;-81
2024/01/20 11:46:50;;;;;;;14.43;6.05;;;;;;;;;;8409153;28;20036;-80
2024/01/20 11:50:52;;;;;;;10.40;4.90;;;;;;;;;;8422440;28;20834;-80
2024/01/20 11:54:54;;;;;;;10.85;6.43;;;;;;;;;;8395642;28;20052;-80
2024/01/20 11:58:58;;;;;;;14.38;7.15;;;;;;;;;;8422747;28;20094;-80
2024/01/20 12:03:00;;;;;;;21.63;8.57;;;;;;;;;;8415252;28;20044;-80
2024/01/20 12:07:05;;;;;;;18.77;7.18;;;;;;;;;;8428126;28;20417;-80
2024/01/20 12:11:07;;;;;;;10.80;5.57;;;;;;;;;;8426284;28;20097;-81
2024/01/20 12:15:11;;;;;;;12.18;5.65;;;;;;;;;;8413289;28;20036;-80
2024/01/20 12:19:13;;;;;;;13.93;6.97;;;;;;;;;;8429664;28;20448;-79
2024/01/20 12:23:19;;;;;;;13.98;7.32;;;;;;;;;;8414848;28;20048;-79
2024/01/20 12:27:23;;;;;;;10.30;4.82;;;;;;;;;;8407052;28;20045;-80
2024/01/20 12:31:26;;;;;;;15.57;7.28;;;;;;;;;;8428149;28;20040;-79
2024/01/20 12:35:29;;;;;;;14.02;7.20;;;;;;;;;;8413658;28;20044;-79
2024/01/20 12:39:31;;;;;;;9.85;6.15;;;;;;;;;;8414153;28;20071;-80
2024/01/20 12:43:33;;;;;;;14.38;6.20;;;;;;;;;;8407767;28;20055;-80
2024/01/20 12:47:36;;;;;;;14.85;6.53;;;;;;;;;;8417157;28;20036;-80
2024/01/20 12:51:39;;;;;;;15.80;6.40;;;;;;;;;;8410298;28;20145;-80
2024/01/20 12:55:41;;;;;;;9.43;4.60;;;;;;;;;;8433486;28;20036;-80
2024/01/20 12:59:43;;;;;;;20.42;8.05;;;;;;;;;;8419987;28;20546;-80
2024/01/20 13:03:47;;;;;;;14.43;7.00;;;;;;;;;;8425807;28;20040;-79
2024/01/20 13:07:50;;;;;;;14.35;7.32;;;;;;;;;;8410646;28;20097;-79
2024/01/20 13:12:06;;;;;;;;;;;;;;;;;;8408414;28;20037;-79
2024/01/20 13:16:08;;;;;;;15.40;6.72;;;;;;;;;;8414665;28;19924;-80
2024/01/20 13:20:16;;;;;;;22.02;7.55;;;;;;;;;;8415654;28;20051;-80
2024/01/20 13:24:18;;;;;;;17.23;8.45;;;;;;;;;;8420672;28;20067;-80
2024/01/20 13:28:20;;;;;;;;;;;;;;;;;;8398840;28;20047;-80
2024/01/20 13:32:23;;;;;;;14.75;7.22;;;;;;;;;;8398266;28;19946;-80
2024/01/20 13:36:26;;;;;;;15.80;6.93;;;;;;;;;;8412325;28;20044;-80
2024/01/20 13:40:28;;;;;;;12.48;6.03;;;;;;;;;;8420094;28;20515;-77
2024/01/20 13:44:30;;;;;;;26.40;9.60;;;;;;;;;;8418619;28;20089;-78
2024/01/20 13:48:32;;;;;;;16.08;7.18;;;;;;;;;;8431670;28;20044;-78
2024/01/20 13:52:36;;;;;;;;;;;;;;;;;;8417477;28;20412;-77
2024/01/20 13:56:37;;;;;;;18.38;7.45;;;;;;;;;;8405295;28;19924;-78
2024/01/20 14:00:41;;;;;;;19.35;7.60;;;;;;;;;;8411881;28;20412;-78
2024/01/20 14:04:45;;;;;;;13.02;5.45;;;;;;;;;;8410209;28;20048;-77
2024/01/20 14:08:50;;;;;;;18.98;8.82;;;;;;;;;;8406453;28;20421;-77
2024/01/20 14:12:52;;;;;;;14.05;5.50;;;;;;;;;;8397268;28;20036;-77
2024/01/20 14:16:55;;;;;;;;;;;;;;;;;;8418267;28;20633;-78
2024/01/20 14:20:57;;;;;;;13.70;6.28;;;;;;;;;;8410996;28;19920;-77
2024/01/20 14:25:01;;;;;;;;;;;;;;;;;;8402913;28;20048;-78
2024/01/20 14:29:06;;;;;;;19.00;8.55;;;;;;;;;;8423384;28;19924;-77
2024/01/20 14:33:08;;;;;;;13.80;7.43;;;;;;;;;;8397561;28;20511;-77
2024/01/20 14:37:16;;;;;;;15.75;7.22;;;;;;;;;;8410018;28;20044;-77
2024/01/20 14:41:19;;;;;;;20.42;7.13;;;;;;;;;;8414169;28;20036;-77
2024/01/20 14:45:22;;;;;;;18.40;7.53;;;;;;;;;;8430065;28;20486;-77
2024/01/20 14:49:32;;;;;;;17.65;7.97;;;;;;;;;;8411986;28;20059;-77
2024/01/20 14:53:34;;;;;;;24.48;8.98;;;;;;;;;;8408435;28;20043;-77
2024/01/20 14:58:08;;;;;;;;;;;;;;;;;;8416981;28;20419;-77
2024/01/20 15:02:31;;;;;;;17.05;7.70;;;;;;;;;;8426475;28;20380;-77
2024/01/20 15:06:33;;;;;;;29.40;10.95;;;;;;;;;;8408182;28;20101;-77
2024/01/20 15:10:35;;;;;;;;;;;;;;;;;;8415000;28;20119;-78
2024/01/20 15:14:37;;;;;;;14.32;5.88;;;;;;;;;;8412442;28;19926;-77
2024/01/20 15:18:40;;;;;;;;;;;;;;;;;;8404526;28;20044;-77
2024/01/20 15:22:46;;;;;;;23.52;8.98;;;;;;;;;;8396334;28;20400;-77
2024/01/20 15:26:48;;;;;;;9.60;4.45;;;;;;;;;;8422713;28;20047;-78
2024/01/20 15:30:51;;;;;;;24.50;9.77;;;;;;;;;;8419764;28;20036;-78
2024/01/20 15:34:55;;;;;;;37.03;13.35;;;;;;;;;;8411993;28;20127;-77
2024/01/20 15:38:57;;;;;;;17.58;7.00;;;;;;;;;;8420110;28;20067;-77
2024/01/20 15:42:59;;;;;;;;;;;;;;;;;;8430129;28;20536;-77
2024/01/20 15:47:01;;;;;;;14.80;6.25;;;;;;;;;;8411545;28;19920;-77
2024/01/20 15:51:04;;;;;;;;;;;;;;;;;;8407826;28;20040;-77
2024/01/20 15:55:08;;;;;;;9.40;4.55;;;;;;;;;;8411163;28;19927;-78
2024/01/20 15:59:24;;;;;;;16.45;7.65;;;;;;;;;;8416304;28;20047;-77
2024/01/20 16:03:26;;;;;;;16.25;7.53;;;;;;;;;;8428698;28;20048;-80
2024/01/20 16:07:45;;;;;;;12.07;6.30;;;;;;;;;;8419111;28;20075;-78
2024/01/20 16:11:52;;;;;;;17.50;5.70;;;;;;;;;;8407728;28;20036;-78
2024/01/20 16:15:54;;;;;;;15.82;6.93;;;;;;;;;;8420556;28;20040;-78
2024/01/20 16:20:14;;;;;;;15.57;6.90;;;;;;;;;;8348911;28;20107;-79
2024/01/20 16:24:18;;;;;;;16.52;5.43;;;;;;;;;;8364480;28;20053;-78
2024/01/20 16:28:20;;;;;;;7.82;4.07;;;;;;;;;;8364291;28;20151;-78
2024/01/20 16:32:23;;;;;;;;;;;;;;;;;;8364724;28;20467;-78
2024/01/20 16:36:26;;;;;;;17.17;5.93;;;;;;;;;;8364456;28;19931;-78
2024/01/20 16:40:29;;;;;;;10.95;5.20;;;;;;;;;;8363999;28;20053;-78
2024/01/20 16:44:31;;;;;;;14.43;6.18;;;;;;;;;;8363969;28;20057;-79
2024/01/20 16:48:33;;;;;;;12.52;5.85;;;;;;;;;;8364707;28;20145;-78
2024/01/20 16:52:54;;;;;;;17.80;7.25;;;;;;;;;;8431731;28;20508;-78
2024/01/20 16:56:57;;;;;;;16.00;6.80;;;;;;;;;;8433316;28;20051;-78
2024/01/20 17:01:00;;;;;;;15.93;6.95;;;;;;;;;;8419783;28;20131;-78
2024/01/20 17:05:02;;;;;;;;;;;;;;;;;;8410383;28;20048;-78
2024/01/20 17:09:04;;;;;;;16.83;6.88;;;;;;;;;;8399443;28;19920;-79
2024/01/20 17:13:07;;;;;;;14.93;7.20;;;;;;;;;;8413019;28;20070;-78
2024/01/20 17:17:09;;;;;;;16.52;6.82;;;;;;;;;;8400790;28;20393;-78
2024/01/20 17:21:16;;;;;;;14.38;5.90;;;;;;;;;;8419497;28;20468;-78
2024/01/20 17:25:18;;;;;;;20.17;8.32;;;;;;;;;;8426117;28;20558;-78
2024/01/20 17:29:26;;;;;;;18.08;8.10;;;;;;;;;;8410306;28;20475;-80
2024/01/20 17:33:28;;;;;;;11.63;5.38;;;;;;;;;;8412035;28;20476;-77
2024/01/20 17:37:30;;;;;;;;;;;;;;;;;;8407204;28;20064;-78
2024/01/20 17:41:32;;;;;;;18.58;7.68;;;;;;;;;;8419989;28;20273;-78
2024/01/20 17:45:36;;;;;;;14.60;6.43;;;;;;;;;;8405298;28;20051;-78
2024/01/20 17:49:44;;;;;;;14.30;4.75;;;;;;;;;;8424692;28;20125;-78
2024/01/20 17:53:47;;;;;;;9.23;5.75;;;;;;;;;;8416629;28;20032;-78
2024/01/20 17:58:06;;;;;;;13.23;6.25;;;;;;;;;;8409560;28;20040;-78
2024/01/20 18:02:09;;;;;;;20.65;8.27;;;;;;;;;;8431357;28;20040;-78
2024/01/20 18:06:13;;;;;;;18.50;7.78;;;;;;;;;;8418031;28;20067;-79
2024/01/20 18:10:15;;;;;;;26.08;9.57;;;;;;;;;;8410876;28;20576;-79
2024/01/20 18:14:24;;;;;;;16.67;6.32;;;;;;;;;;8409525;28;20118;-79
2024/01/20 18:18:27;;;;;;;18.77;8.63;;;;;;;;;;8412083;28;20507;-79
2024/01/20 18:22:29;;;;;;;16.42;7.30;;;;;;;;;;8418133;28;20050;-79
2024/01/20 18:26:32;;;;;;;21.88;9.27;;;;;;;;;;8430870;28;20036;-79
2024/01/20 18:30:36;;;;;;;23.40;9.82;;;;;;;;;;8430371;28;20055;-79
2024/01/20 18:34:50;;;;;;;22.45;9.43;;;;;;;;;;8429927;28;20040;-79
2024/01/20 18:38:52;;;;;;;4.50;3.13;;;;;;;;;;8415186;28;20063;-79
2024/01/20 18:42:54;;;;;;;;;;;;;;;;;;8427309;28;20044;-79
2024/01/20 18:46:56;;;;;;;13.35;6.22;;;;;;;;;;8431068;28;19920;-79
2024/01/20 18:50:59;;;;;;;18.02;7.82;;;;;;;;;;8428630;28;20048;-79
2024/01/20 18:55:34;;;;;;;22.42;8.82;;;;;;;;;;8430660;28;20044;-79
2024/01/20 18:59:36;;;;;;;12.20;5.82;;;;;;;;;;8430553;28;20048;-79
2024/01/20 19:03:38;;;;;;;19.17;8.10;;;;;;;;;;8430959;28;20051;-79
2024/01/20 19:07:41;;;;;;;;;;;;;;;;;;8431219;28;20105;-79
2024/01/20 19:11:44;;;;;;;12.00;6.45;;;;;;;;;;8430670;28;19920;-79
2024/01/20 19:15:47;;;;;;;23.02;9.80;;;;;;;;;;8430436;28;20040;-79
2024/01/20 19:19:49;;;;;;;24.27;9.48;;;;;;;;;;8430210;28;20040;-79
2024/01/20 19:23:52;;;;;;;19.73;8.90;;;;;;;;;;8430318;28;20040;-79
2024/01/20 19:27:54;;;;;;;15.80;7.55;;;;;;;;;;8430186;28;20048;-79
2024/01/20 19:31:56;;;;;;;;;;;;;;;;;;8430450;28;20426;-79
2024/01/20 19:35:58;;;;;;;13.80;7.50;;;;;;;;;;8429291;28;19927;-79
2024/01/20 19:40:02;;;;;;;21.85;8.80;;;;;;;;;;8428421;28;20415;-79
2024/01/20 19:44:05;;;;;;;19.58;8.82;;;;;;;;;;8430707;28;20507;-78
2024/01/20 19:48:08;;;;;;;24.08;9.02;;;;;;;;;;8430272;28;20515;-79
2024/01/20 19:52:10;;;;;;;21.30;9.25;;;;;;;;;;8430058;28;20485;-79
2024/01/20 19:56:13;;;;;;;17.75;8.38;;;;;;;;;;8429959;28;20044;-79
2024/01/20 20:00:19;;;;;;;24.65;9.77;;;;;;;;;;8429970;28;20044;-78
2024/01/20 20:04:21;;;;;;;15.77;6.75;;;;;;;;;;8429802;28;20040;-78
2024/01/20 20:08:23;;;;;;;;;;;;;;;;;;8429973;28;20044;-78
2024/01/20 20:12:27;;;;;;;17.48;7.70;;;;;;;;;;8429496;28;19920;-78
2024/01/20 20:16:29;;;;;;;23.65;9.80;;;;;;;;;;8429716;28;20166;-78
2024/01/20 20:20:31;;;;;;;19.30;10.27;;;;;;;;;;8429384;28;20071;-78
2024/01/20 20:24:35;;;;;;;16.52;8.70;;;;;;;;;;8429249;28;20535;-78
2024/01/20 20:28:39;;;;;;;16.88;7.85;;;;;;;;;;8429483;28;20161;-78
2024/01/20 20:32:41;;;;;;;21.15;8.80;;;;;;;;;;8434155;28;20051;-78
2024/01/20 20:36:42;;;;;;;;;;;;;;;;;;8435728;28;20277;-78
2024/01/20 20:40:44;;;;;;;14.83;7.43;;;;;;;;;;8434366;28;19920;-78
2024/01/20 20:44:48;;;;;;;20.20;9.75;;;;;;;;;;8434844;28;20040;-78
2024/01/20 20:48:50;;;;;;;23.55;10.23;;;;;;;;;;8434998;28;20036;-77
2024/01/20 20:52:52;;;;;;;17.85;8.55;;;;;;;;;;8434691;28;20078;-77
2024/01/20 20:56:54;;;;;;;;;;;;;;;;;;8435040;28;20507;-77
2024/01/20 21:00:58;;;;;;;18.00;8.02;;;;;;;;;;8434236;28;20311;-77
2024/01/20 21:05:00;;;;;;;18.45;8.43;;;;;;;;;;8434344;28;20484;-77
2024/01/20 21:09:27;;;;;;;15.32;8.25;;;;;;;;;;8432753;28;20047;-77
2024/01/20 21:13:29;;;;;;;15.98;6.78;;;;;;;;;;8434025;28;20073;-77
2024/01/20 21:17:33;;;;;;;;;;;;;;;;;;8435379;28;20040;-77
2024/01/20 21:21:36;;;;;;;17.70;8.07;;;;;;;;;;8433943;28;19920;-77
2024/01/20 21:25:38;;;;;;;17.42;8.35;;;;;;;;;;8433689;28;20055;-77
2024/01/20 21:29:40;;;;;;;;;;;;;;;;;;8433998;28;20127;-77
2024/01/20 21:33:43;;;;;;;;;;;;;;;;;;8433773;28;20018;-77
2024/01/20 21:37:45;;;;;;;16.25;8.68;;;;;;;;;;8433322;28;19920;-77
2024/01/20 21:41:48;;;;;;;9.07;6.30;;;;;;;;;;8432951;28;20135;-77
2024/01/20 21:45:50;;;;;;;17.95;8.07;;;;;;;;;;8432988;28;20514;-77
2024/01/20 21:49:53;;;;;;;;;;;;;;;;;;8426388;28;20040;-77
2024/01/20 21:53:55;;;;;;;21.35;9.55;;;;;;;;;;8405666;28;19920;-77
2024/01/20 21:57:57;;;;;;;34.17;10.02;;;;;;;;;;8432219;28;20055;-77
2024/01/20 22:01:59;;;;;;;19.35;8.80;;;;;;;;;;8417574;28;20186;-77
2024/01/20 22:06:02;;;;;;;;;;;;;;;;;;8398642;28;20114;-77
2024/01/20 22:10:22;;;;;;;22.98;9.35;;;;;;;;;;8398656;28;19920;-77
2024/01/20 22:14:46;;;;;;;23.33;9.07;;;;;;;;;;8398616;28;20532;-77
2024/01/20 22:18:48;;;;;;;20.83;9.93;;;;;;;;;;8398564;28;20048;-78
2024/01/20 22:22:51;;;;;;;;;;;;;;;;;;8398831;28;20045;-79
2024/01/20 22:26:53;;;;;;;29.38;10.63;;;;;;;;;;8397191;28;20374;-78
2024/01/20 22:30:55;;;;;;;23.50;10.43;;;;;;;;;;8397425;28;20041;-78
2024/01/20 22:34:57;;;;;;;;;;;;;;;;;;8397897;28;20043;-78
2024/01/20 22:39:03;;;;;;;15.60;7.70;;;;;;;;;;8397788;28;19920;-78
2024/01/20 22:43:05;;;;;;;22.38;9.68;;;;;;;;;;8397684;28;20041;-78
2024/01/20 22:47:07;;;;;;;18.65;9.55;;;;;;;;;;8397587;28;20111;-78
2024/01/20 22:51:09;;;;;;;;;;;;;;;;;;8397966;28;20048;-78
2024/01/20 22:55:13;;;;;;;21.77;9.13;;;;;;;;;;8397095;28;19921;-78
2024/01/20 22:59:19;;;;;;;21.85;9.77;;;;;;;;;;8397409;28;20044;-78
2024/01/20 23:03:21;;;;;;;24.48;10.38;;;;;;;;;;8397321;28;20396;-78
2024/01/20 23:07:23;;;;;;;22.10;9.77;;;;;;;;;;8397156;28;20119;-78
2024/01/20 23:11:26;;;;;;;;;;;;;;;;;;8397704;28;20044;-78
2024/01/20 23:15:28;;;;;;;20.77;9.60;;;;;;;;;;8397176;28;19926;-78
2024/01/20 23:19:29;;;;;;;22.27;9.60;;;;;;;;;;8395981;28;20169;-78
2024/01/20 23:23:31;;;;;;;;;;;;;;;;;;8397489;28;20453;-79
2024/01/20 23:27:35;;;;;;;23.70;9.63;;;;;;;;;;8396828;28;20372;-78
2024/01/20 23:31:38;;;;;;;17.80;9.02;;;;;;;;;;8397028;28;20515;-78
2024/01/20 23:35:40;;;;;;;27.67;10.45;;;;;;;;;;8396719;28;20044;-78
2024/01/20 23:39:41;;;;;;;;;;;;;;;;;;8401686;28;20060;-78
2024/01/20 23:43:45;;;;;;;25.67;9.80;;;;;;;;;;8429257;28;19920;-78
2024/01/20 23:47:49;;;;;;;20.05;10.75;;;;;;;;;;8429889;28;20420;-78
2024/01/20 23:51:51;;;;;;;24.98;9.88;;;;;;;;;;8427187;28;20160;-78
2024/01/20 23:55:53;;;;;;;;;;;;;;;;;;8418914;28;20044;-79
2024/01/20 23:59:56;;;;;;;18.48;9.45;;;;;;;;;;8429846;28;20300;-78
